Terminal Aerodrome Forecast
Issued by NWS

Home | Current Version | Previous Version | Graphics & Text | Print | Product List | Glossary On
Versions: 1 2 3 4 5 6 7 8 9 10 11 12 13 14 15 16 17
474
FTUS42 KMHX 261113 AAA
TAFOAJ
TAF AMD
KOAJ 261113Z 2611/2706 20006KT P6SM BKN080
      TEMPO 2611/2612 4SM BR
     FM262000 18008KT P6SM SCT060
     FM270100 19003KT P6SM SKC
      AMD LTD TO CLD VIS AND WIND=

USA.gov is the U.S. government's official web portal to all federal, state and local government web resources and services.